LIEE/CAG METAR and TAF weather

Enter ICAO airport designator
Station Type Date Time Source
LIEE METAR 2022/01/26 20:50 UTC NOAA

LIEE 262050Z 02005KT CAVOK 06/04 Q1029


Station Type Date Time Source
LIEE Decoded METAR 2022/01/26 20:50 UTC NOAA

Cagliari / Elmas, Italy (LIEE) 39-15N 009-04E 5M
Jan 26, 2022 - 03:50 PM EST / 2022.01.26 2050 UTC
Wind: from the NNE (020 degrees) at 6 MPH (5 KT):0
Visibility: greater than 7 mile(s):0
Temperature: 42 F (6 C)
Dew Point: 39 F (4 C)
Relative Humidity: 86%
Pressure (altimeter): 30.39 in. Hg (1029 hPa)
ob: LIEE 262050Z 02005KT CAVOK 06/04 Q1029
cycle: 21

Station Type Date Time Source
LIEE TAF 2022/01/26 18:45 UTC NOAA

TAF LIEE 261838Z 2618/2718 34008KT 9999 FEW030

Example: see airport list